الصفحة الرئيسية
METAR-TAF:

METAR-TAF

مطار :

Kremmling, كولورادو, الولايات المتحدة

Mc Elroy Airfield

دائرة عرض: 40-03-13N, خط طول: 106-22-08W, ارتفاع: 2259 متر

مراقبة الطقس الحالي

تاريخ ووقت الإصدار 27 دقيقة قبل الساعة 15:30UTC
رياح هادئة
درجة الحرارة 4°درجة مئوية
الرطوبة 60%
ضغط 1030 hPa
الرؤية: 16.1 كم
سماء صافية

METAR: K20V 251530Z AUTO 00000KT 10SM CLR 04/M03 A3042 RMK AO2

زمن: 09:57 (15:57 UTC)


TAF: مفقودة

أرصاد الطقس والتوقعات من أكثر من 4000 مطار (تقارير الطقس للمطار METAR والتنبؤ بالطقس بالمطارTAF).

المحطات المتاحة هي النقط الصفراء والحمراء على الخريطة.

حرك المؤشر فوق النقطة لمعرفة اسم المحطة.

ثم انقر لمعرفة أرصاد وتوقعات الطقس.

لتغيير الخارطة: اضغط على الأزرار الخضراء مع رمز الصليب الأسود للتكبير. على الزر الأخضر مع شرطة للتصغير، أو على الأسهم الخضراء للخرائط المجاورة.


METAR-TAF: